createdAt,value
2018-09-27T00:00:04.020Z,77.80
2018-09-27T00:02:31.509Z,78.50
2018-09-27T00:04:59.057Z,78.50
2018-09-27T00:07:26.554Z,78.60
2018-09-27T00:09:54.163Z,78.50
2018-09-27T00:12:21.724Z,78.50
2018-09-27T00:14:49.208Z,78.60
2018-09-27T00:17:16.735Z,78.80
2018-09-27T00:19:44.331Z,78.70
2018-09-27T00:22:11.898Z,79.00
2018-09-27T00:24:39.446Z,79.20
2018-09-27T00:27:06.969Z,79.30
2018-09-27T00:29:34.499Z,79.30
2018-09-27T00:32:02.103Z,79.50
2018-09-27T00:34:30.221Z,79.60
2018-09-27T00:36:57.791Z,79.70
2018-09-27T00:39:25.810Z,80.00
2018-09-27T00:41:53.333Z,80.30
2018-09-27T00:44:20.926Z,80.50
2018-09-27T00:46:48.447Z,80.20
2018-09-27T00:49:15.928Z,80.20
2018-09-27T00:51:43.543Z,80.30
2018-09-27T00:54:11.039Z,80.20
2018-09-27T00:56:38.545Z,80.20
2018-09-27T00:59:06.217Z,80.20
2018-09-27T01:01:33.746Z,80.30
2018-09-27T01:04:01.250Z,80.30
2018-09-27T01:06:28.903Z,80.20
2018-09-27T01:08:56.555Z,80.10
2018-09-27T01:11:24.063Z,80.40
2018-09-27T01:13:51.717Z,80.20
2018-09-27T01:16:19.228Z,80.00
2018-09-27T01:18:46.796Z,80.20
2018-09-27T01:21:14.375Z,80.00
2018-09-27T01:23:41.869Z,80.10
2018-09-27T01:26:09.486Z,80.50
2018-09-27T01:28:37.035Z,80.20
2018-09-27T01:31:04.566Z,80.00
2018-09-27T01:33:32.094Z,79.90
2018-09-27T01:35:59.805Z,80.10
2018-09-27T01:38:27.316Z,80.20
2018-09-27T01:40:54.811Z,80.30
2018-09-27T01:43:22.436Z,81.00
2018-09-27T01:45:49.917Z,80.50
2018-09-27T01:48:18.222Z,80.90
2018-09-27T01:50:45.739Z,80.80
2018-09-27T01:53:13.252Z,80.80
2018-09-27T01:55:40.762Z,80.80
2018-09-27T01:58:08.295Z,80.80
2018-09-27T02:00:35.854Z,80.80
2018-09-27T02:03:03.378Z,81.00
2018-09-27T02:05:30.928Z,81.00
2018-09-27T02:09:01.658Z,81.00
2018-09-27T02:11:29.156Z,81.30
2018-09-27T02:13:56.656Z,81.40
2018-09-27T02:16:24.247Z,81.50
2018-09-27T02:18:51.806Z,81.80
2018-09-27T02:21:19.352Z,81.60
2018-09-27T02:23:46.829Z,81.90
2018-09-27T02:26:15.147Z,81.50
2018-09-27T02:28:42.716Z,81.60
2018-09-27T02:31:10.402Z,81.80
2018-09-27T02:33:38.128Z,82.20
2018-09-27T02:36:05.686Z,81.80
2018-09-27T02:38:33.453Z,82.00
2018-09-27T02:41:01.076Z,82.00
2018-09-27T02:43:28.685Z,82.00
2018-09-27T02:45:56.343Z,82.10
2018-09-27T02:48:23.942Z,82.40
2018-09-27T02:50:51.549Z,82.30
2018-09-27T02:53:20.139Z,82.20
2018-09-27T02:55:47.713Z,82.20
2018-09-27T02:58:15.251Z,82.30
2018-09-27T03:00:42.854Z,82.50
2018-09-27T03:03:10.608Z,82.40
2018-09-27T03:05:38.212Z,82.60
2018-09-27T03:08:05.846Z,82.90
2018-09-27T03:10:33.398Z,83.10
2018-09-27T03:13:00.873Z,83.30
2018-09-27T03:15:28.383Z,83.60
2018-09-27T03:17:55.943Z,83.70
2018-09-27T03:20:23.489Z,84.00
2018-09-27T03:22:52.390Z,84.60
2018-09-27T03:25:19.975Z,85.00
2018-09-27T03:27:47.413Z,85.40
2018-09-27T03:30:14.977Z,85.70
2018-09-27T03:32:42.492Z,86.00
2018-09-27T03:35:09.965Z,86.20
2018-09-27T03:37:37.462Z,86.50
2018-09-27T03:40:05.754Z,86.80
2018-09-27T03:42:33.205Z,87.00
2018-09-27T03:45:00.771Z,87.20
2018-09-27T03:47:29.348Z,87.40
2018-09-27T03:49:56.931Z,87.60
2018-09-27T03:52:24.431Z,87.60
2018-09-27T03:54:51.966Z,87.80
2018-09-27T03:57:19.477Z,87.60
2018-09-27T03:59:47.099Z,87.80
2018-09-27T04:02:14.596Z,87.90
2018-09-27T04:04:42.164Z,87.70
2018-09-27T04:07:09.695Z,87.80
2018-09-27T04:09:37.314Z,87.90
2018-09-27T04:12:04.818Z,88.10
2018-09-27T04:14:32.355Z,88.70
2018-09-27T04:16:59.892Z,88.30
2018-09-27T04:19:28.120Z,88.40
2018-09-27T04:21:55.612Z,88.50
2018-09-27T04:24:23.193Z,88.90
2018-09-27T04:26:50.712Z,89.10
2018-09-27T04:29:18.299Z,89.50
2018-09-27T04:31:45.801Z,89.70
2018-09-27T04:34:13.309Z,90.00
2018-09-27T04:36:40.884Z,90.00
2018-09-27T04:39:09.744Z,90.30
2018-09-27T04:41:38.142Z,90.30
2018-09-27T04:44:05.724Z,90.40
2018-09-27T04:46:33.257Z,90.50
2018-09-27T04:49:00.762Z,90.50
2018-09-27T04:51:28.306Z,90.70
2018-09-27T04:53:55.792Z,90.70
2018-09-27T04:56:23.278Z,90.80
2018-09-27T04:58:50.815Z,90.80
2018-09-27T05:01:18.346Z,90.90
2018-09-27T05:03:46.035Z,91.00
2018-09-27T05:06:14.521Z,91.00
2018-09-27T05:08:42.122Z,91.10
2018-09-27T05:11:11.009Z,91.20
2018-09-27T05:13:38.453Z,91.30
2018-09-27T05:16:06.116Z,91.30
2018-09-27T05:18:33.589Z,91.40
2018-09-27T05:21:01.117Z,91.40
2018-09-27T05:23:28.653Z,91.40
2018-09-27T05:25:56.272Z,91.50
2018-09-27T05:28:23.815Z,91.50
2018-09-27T05:30:51.334Z,91.60
2018-09-27T05:33:18.899Z,91.70
2018-09-27T05:35:46.441Z,91.70
2018-09-27T05:38:14.106Z,91.80
2018-09-27T05:40:41.633Z,91.80
2018-09-27T05:43:09.207Z,91.80
2018-09-27T05:45:37.306Z,91.80
2018-09-27T05:48:04.984Z,91.70
2018-09-27T05:50:32.505Z,91.70
2018-09-27T05:53:00.067Z,91.90
2018-09-27T05:55:27.599Z,91.80
2018-09-27T05:57:55.172Z,91.80
2018-09-27T06:00:22.690Z,91.60
2018-09-27T06:02:50.181Z,91.50
2018-09-27T06:05:17.727Z,91.50
2018-09-27T06:07:45.287Z,91.50
2018-09-27T06:10:12.868Z,91.40
2018-09-27T06:12:40.482Z,91.30
2018-09-27T06:15:08.047Z,91.10
2018-09-27T06:17:35.604Z,91.10
2018-09-27T06:20:03.361Z,91.10
2018-09-27T06:22:30.837Z,90.80
2018-09-27T06:24:58.428Z,91.00
2018-09-27T06:27:25.948Z,91.00
2018-09-27T06:29:53.446Z,90.90
2018-09-27T06:32:21.016Z,90.70
2018-09-27T06:34:48.724Z,90.60
2018-09-27T06:37:16.246Z,90.70
2018-09-27T06:39:43.827Z,90.60
2018-09-27T06:42:11.333Z,90.20
2018-09-27T06:44:38.893Z,90.10
2018-09-27T06:47:06.575Z,90.10
2018-09-27T06:49:34.081Z,90.00
2018-09-27T06:52:02.239Z,89.30
2018-09-27T06:54:29.775Z,88.60
2018-09-27T06:56:57.425Z,89.20
2018-09-27T06:59:24.912Z,88.50
2018-09-27T07:01:52.431Z,88.10
2018-09-27T07:04:19.962Z,87.50
2018-09-27T07:06:47.483Z,87.50
2018-09-27T07:09:14.972Z,87.50
2018-09-27T07:11:42.489Z,86.10
2018-09-27T07:14:10.539Z,87.00
2018-09-27T07:16:38.219Z,87.30
2018-09-27T07:19:06.803Z,87.00
2018-09-27T07:21:34.468Z,85.50
2018-09-27T07:24:02.037Z,86.00
2018-09-27T07:26:29.526Z,84.70
2018-09-27T07:28:57.218Z,84.70
2018-09-27T07:31:24.816Z,84.10
2018-09-27T07:33:52.990Z,83.70
2018-09-27T07:36:20.672Z,83.50
2018-09-27T07:38:48.252Z,83.70
2018-09-27T07:41:15.901Z,84.10
2018-09-27T07:43:43.592Z,84.50
2018-09-27T07:46:11.260Z,85.00
2018-09-27T07:48:38.977Z,84.60
2018-09-27T07:51:06.636Z,84.00
2018-09-27T07:53:34.273Z,83.60
2018-09-27T07:56:02.547Z,83.10
2018-09-27T07:58:30.118Z,83.00
2018-09-27T08:00:57.649Z,82.30
2018-09-27T08:03:25.263Z,82.10
2018-09-27T08:05:52.787Z,81.60
2018-09-27T08:08:20.336Z,80.80
2018-09-27T08:10:47.870Z,81.60
2018-09-27T08:13:15.430Z,80.80
2018-09-27T08:15:42.969Z,81.00
2018-09-27T08:18:10.530Z,80.90
2018-09-27T08:20:38.229Z,79.90
2018-09-27T08:23:06.018Z,79.40
2018-09-27T08:25:33.593Z,79.00
2018-09-27T08:28:01.144Z,77.20
2018-09-27T08:30:29.057Z,77.30
2018-09-27T08:32:56.634Z,77.40
2018-09-27T08:35:24.220Z,76.50
2018-09-27T08:37:51.845Z,77.70
2018-09-27T08:40:19.521Z,77.80
2018-09-27T08:42:47.140Z,77.40
2018-09-27T08:45:14.943Z,77.30
2018-09-27T08:47:42.347Z,77.50
2018-09-27T08:50:09.892Z,77.50
2018-09-27T08:52:37.568Z,77.50
2018-09-27T08:55:05.254Z,77.60
2018-09-27T08:57:32.903Z,76.50
2018-09-27T09:00:01.546Z,76.30
2018-09-27T09:02:29.215Z,76.00
2018-09-27T09:04:56.768Z,76.30
2018-09-27T09:07:24.453Z,75.60
2018-09-27T09:09:52.041Z,75.80
2018-09-27T09:12:19.753Z,75.80
2018-09-27T09:14:47.880Z,76.00
2018-09-27T09:17:15.401Z,76.50
2018-09-27T09:19:43.081Z,76.40
2018-09-27T09:22:10.770Z,74.90
2018-09-27T09:24:40.289Z,75.40
2018-09-27T09:27:09.750Z,75.00
2018-09-27T09:29:38.001Z,75.20
2018-09-27T09:32:05.589Z,75.50
2018-09-27T09:34:37.013Z,75.10
2018-09-27T09:37:06.277Z,74.40
2018-09-27T09:39:33.933Z,74.50
2018-09-27T09:42:01.510Z,75.50
2018-09-27T09:44:29.070Z,74.50
2018-09-27T09:46:56.755Z,75.40
2018-09-27T09:49:24.332Z,74.90
2018-09-27T09:51:51.837Z,76.50
2018-09-27T09:54:19.449Z,75.10
2018-09-27T09:56:46.940Z,74.20
2018-09-27T09:59:14.541Z,74.80
2018-09-27T10:01:42.087Z,76.50
2018-09-27T10:04:09.773Z,76.20
2018-09-27T10:06:37.436Z,77.10
2018-09-27T10:09:07.691Z,76.40
2018-09-27T10:11:35.307Z,75.20
2018-09-27T10:14:02.882Z,75.00
2018-09-27T10:16:30.411Z,75.30
2018-09-27T10:18:57.966Z,75.40
2018-09-27T10:21:25.689Z,77.50
2018-09-27T10:23:53.229Z,75.50
2018-09-27T10:26:20.786Z,75.70
2018-09-27T10:28:48.451Z,75.70
2018-09-27T10:31:16.027Z,76.80
2018-09-27T10:33:43.618Z,76.20
2018-09-27T10:36:12.393Z,77.00
2018-09-27T10:38:40.178Z,77.50
2018-09-27T10:41:07.986Z,76.60
2018-09-27T10:43:35.576Z,78.60
2018-09-27T10:46:03.179Z,78.80
2018-09-27T10:48:30.905Z,80.10
2018-09-27T10:50:58.696Z,80.10
2018-09-27T10:53:26.518Z,81.20
2018-09-27T10:55:54.211Z,81.10
2018-09-27T10:58:21.802Z,81.60
2018-09-27T11:00:49.232Z,79.70
2018-09-27T11:03:17.545Z,78.80
2018-09-27T11:05:45.112Z,78.30
2018-09-27T11:08:12.663Z,77.70
2018-09-27T11:10:40.364Z,79.60
2018-09-27T11:13:07.890Z,79.50
2018-09-27T11:15:35.604Z,79.60
2018-09-27T11:18:03.374Z,79.90
2018-09-27T11:20:30.965Z,79.70
2018-09-27T11:22:58.604Z,81.10
2018-09-27T11:25:26.186Z,80.20
2018-09-27T11:27:53.857Z,80.10
2018-09-27T11:30:27.181Z,80.30
2018-09-27T11:32:54.869Z,80.60
2018-09-27T11:35:22.421Z,80.10
2018-09-27T11:37:49.910Z,80.70
2018-09-27T11:40:17.519Z,82.20
2018-09-27T11:42:45.228Z,80.00
2018-09-27T11:45:12.886Z,80.50
2018-09-27T11:47:40.399Z,80.70
2018-09-27T11:50:08.208Z,81.30
2018-09-27T11:52:35.699Z,80.10
2018-09-27T11:55:03.464Z,79.70
2018-09-27T11:57:30.945Z,79.50
2018-09-27T11:59:58.510Z,78.60
2018-09-27T12:02:26.118Z,77.90
2018-09-27T12:04:53.711Z,78.70
2018-09-27T12:07:21.338Z,78.20
2018-09-27T12:09:49.016Z,77.40
2018-09-27T12:12:17.924Z,77.20
2018-09-27T12:14:45.503Z,77.50
2018-09-27T12:17:13.210Z,76.20
2018-09-27T12:19:40.791Z,75.90
2018-09-27T12:22:08.294Z,75.40
2018-09-27T12:24:36.007Z,73.50
2018-09-27T12:27:03.566Z,70.60
2018-09-27T12:29:31.110Z,66.70
2018-09-27T12:31:58.755Z,63.40
2018-09-27T12:34:26.663Z,60.30
2018-09-27T12:36:54.396Z,57.10
2018-09-27T12:39:22.007Z,55.10
2018-09-27T12:41:49.716Z,53.70
2018-09-27T12:44:17.338Z,53.10
2018-09-27T12:46:44.885Z,51.90
2018-09-27T12:49:12.474Z,50.30
2018-09-27T12:51:40.271Z,49.90
2018-09-27T12:54:07.724Z,49.10
2018-09-27T12:56:35.353Z,49.70
2018-09-27T12:59:03.103Z,48.60
2018-09-27T13:01:30.875Z,47.50
2018-09-27T13:03:58.627Z,46.60
2018-09-27T13:06:26.313Z,48.10
2018-09-27T13:08:53.895Z,47.30
2018-09-27T13:11:21.571Z,48.20
2018-09-27T13:13:49.170Z,48.00
2018-09-27T13:16:16.805Z,48.30
2018-09-27T13:18:45.606Z,48.10
2018-09-27T13:21:13.142Z,48.30
2018-09-27T13:23:40.756Z,48.20
2018-09-27T13:26:08.571Z,47.40
2018-09-27T13:28:36.091Z,47.50
2018-09-27T13:31:03.852Z,47.40
2018-09-27T13:33:31.475Z,48.00
2018-09-27T13:35:59.010Z,47.30
2018-09-27T13:38:26.832Z,47.40
2018-09-27T13:40:55.260Z,46.40
2018-09-27T13:43:22.866Z,45.40
2018-09-27T13:45:50.716Z,45.20
2018-09-27T13:48:18.363Z,45.20
2018-09-27T13:50:46.137Z,44.90
2018-09-27T13:53:13.711Z,44.90
2018-09-27T13:55:41.363Z,44.10
2018-09-27T13:58:09.075Z,45.00
2018-09-27T14:00:36.626Z,44.30
2018-09-27T14:03:04.401Z,44.40
2018-09-27T14:05:31.977Z,44.30
2018-09-27T14:07:59.514Z,44.20
2018-09-27T14:10:27.227Z,43.30
2018-09-27T14:12:54.708Z,43.40
2018-09-27T14:15:23.357Z,42.80
2018-09-27T14:17:50.895Z,43.00
2018-09-27T14:20:18.749Z,43.90
2018-09-27T14:22:46.372Z,43.60
2018-09-27T14:25:14.149Z,43.20
2018-09-27T14:27:41.755Z,43.20
2018-09-27T14:30:09.341Z,43.30
2018-09-27T14:32:37.021Z,42.30
2018-09-27T14:35:04.680Z,42.20
2018-09-27T14:37:32.301Z,42.00
2018-09-27T14:39:59.982Z,42.40
2018-09-27T14:42:28.035Z,41.90
2018-09-27T14:44:56.044Z,41.30
2018-09-27T14:47:23.902Z,41.30
2018-09-27T14:49:51.671Z,41.50
2018-09-27T14:52:19.321Z,41.50
2018-09-27T14:54:46.916Z,41.00
2018-09-27T14:57:14.781Z,41.20
2018-09-27T14:59:42.469Z,41.50
2018-09-27T15:02:10.227Z,41.30
2018-09-27T15:04:37.956Z,41.70
2018-09-27T15:07:05.460Z,41.80
2018-09-27T15:09:33.202Z,41.10
2018-09-27T15:12:00.787Z,40.90
2018-09-27T15:14:28.389Z,40.60
2018-09-27T15:16:56.121Z,40.50
2018-09-27T15:19:24.279Z,40.00
2018-09-27T15:21:52.037Z,39.80
2018-09-27T15:24:19.602Z,40.20
2018-09-27T15:26:47.154Z,39.50
2018-09-27T15:29:14.863Z,39.50
2018-09-27T15:31:42.425Z,40.30
2018-09-27T15:34:10.580Z,39.80
2018-09-27T15:36:38.243Z,40.20
2018-09-27T15:39:06.833Z,40.90
2018-09-27T15:41:34.482Z,42.60
2018-09-27T15:44:02.045Z,44.30
2018-09-27T15:46:29.596Z,44.30
2018-09-27T15:48:57.217Z,45.30
2018-09-27T15:51:24.911Z,45.40
2018-09-27T15:53:52.510Z,44.30
2018-09-27T15:56:20.064Z,43.70
2018-09-27T15:58:47.550Z,45.40
2018-09-27T16:01:15.130Z,45.20
2018-09-27T16:03:42.731Z,43.40
2018-09-27T16:06:10.288Z,43.50
2018-09-27T16:08:37.859Z,44.00
2018-09-27T16:11:05.682Z,43.90
2018-09-27T16:13:34.304Z,43.40
2018-09-27T16:16:01.833Z,43.20
2018-09-27T16:18:29.488Z,43.50
2018-09-27T16:20:57.101Z,43.60
2018-09-27T16:23:24.691Z,44.00
2018-09-27T16:25:53.525Z,43.20
2018-09-27T16:28:21.091Z,42.60
2018-09-27T16:30:48.669Z,43.10
2018-09-27T16:33:16.873Z,43.20
2018-09-27T16:35:44.535Z,43.30
2018-09-27T16:38:12.191Z,43.10
2018-09-27T16:40:39.756Z,42.60
2018-09-27T16:43:08.059Z,44.20
2018-09-27T16:45:35.638Z,45.70
2018-09-27T16:48:03.244Z,46.20
2018-09-27T16:50:30.898Z,47.70
2018-09-27T16:52:58.456Z,48.30
2018-09-27T16:55:25.988Z,49.70
2018-09-27T16:57:53.512Z,50.60
2018-09-27T17:00:21.075Z,50.50
2018-09-27T17:02:48.590Z,51.50
2018-09-27T17:05:16.171Z,52.20
2018-09-27T17:07:43.816Z,54.10
2018-09-27T17:10:11.362Z,53.80
2018-09-27T17:12:39.028Z,54.90
2018-09-27T17:15:06.592Z,56.20
2018-09-27T17:17:34.216Z,57.20
2018-09-27T17:20:02.488Z,56.30
2018-09-27T17:22:30.043Z,60.70
2018-09-27T17:24:57.684Z,59.10
2018-09-27T17:27:25.218Z,59.80
2018-09-27T17:29:52.717Z,66.90
2018-09-27T17:32:22.404Z,66.70
2018-09-27T17:34:51.229Z,68.10
2018-09-27T17:37:23.418Z,69.40
2018-09-27T17:39:51.240Z,71.70
2018-09-27T17:42:20.170Z,73.30
2018-09-27T17:44:48.030Z,73.80
2018-09-27T17:47:15.772Z,73.90
2018-09-27T17:49:43.414Z,75.00
2018-09-27T17:52:10.942Z,74.50
2018-09-27T17:54:39.378Z,75.90
2018-09-27T17:57:08.016Z,77.90
2018-09-27T17:59:37.035Z,77.70
2018-09-27T18:02:05.745Z,77.20
2018-09-27T18:04:33.598Z,78.30
2018-09-27T18:07:01.298Z,80.00
2018-09-27T18:09:28.852Z,80.80
2018-09-27T18:11:59.447Z,79.80
2018-09-27T18:14:30.479Z,80.70
2018-09-27T18:16:58.015Z,81.30
2018-09-27T18:19:26.331Z,82.50
2018-09-27T18:21:54.235Z,82.90
2018-09-27T18:24:21.781Z,84.40
2018-09-27T18:26:50.497Z,85.40
2018-09-27T18:29:18.150Z,86.60
2018-09-27T18:31:45.883Z,87.00
2018-09-27T18:34:13.641Z,87.70
2018-09-27T18:36:41.514Z,88.30
2018-09-27T18:39:10.447Z,90.10
2018-09-27T18:41:39.013Z,90.50
2018-09-27T18:44:08.041Z,90.50
2018-09-27T18:46:35.598Z,90.70
2018-09-27T18:49:03.885Z,90.90
2018-09-27T18:51:31.395Z,91.30
2018-09-27T18:53:58.934Z,91.40
2018-09-27T18:56:26.458Z,91.50
2018-09-27T18:58:53.937Z,91.80
2018-09-27T19:01:21.529Z,92.20
2018-09-27T19:03:49.049Z,92.30
2018-09-27T19:06:16.594Z,92.80
2018-09-27T19:08:44.214Z,93.10
2018-09-27T19:11:12.033Z,93.30
2018-09-27T19:13:39.561Z,93.60
2018-09-27T19:16:07.139Z,93.80
2018-09-27T19:18:34.651Z,93.90
2018-09-27T19:21:02.233Z,94.10
2018-09-27T19:23:29.678Z,94.00
2018-09-27T19:25:57.244Z,93.90
2018-09-27T19:28:24.702Z,93.90
2018-09-27T19:30:52.263Z,93.90
2018-09-27T19:33:19.760Z,94.00
2018-09-27T19:35:47.280Z,94.60
2018-09-27T19:38:14.826Z,94.60
2018-09-27T19:40:42.308Z,94.60
2018-09-27T19:43:09.802Z,94.70
2018-09-27T19:45:37.352Z,94.70
2018-09-27T19:48:04.924Z,94.80
2018-09-27T19:50:32.418Z,94.80
2018-09-27T19:52:59.915Z,95.00
2018-09-27T19:55:27.577Z,95.40
2018-09-27T19:57:55.125Z,94.60
2018-09-27T20:00:22.648Z,94.70
2018-09-27T20:02:50.185Z,94.70
2018-09-27T20:05:17.803Z,94.90
2018-09-27T20:07:45.377Z,95.00
2018-09-27T20:10:12.977Z,95.10
2018-09-27T20:12:40.489Z,95.00
2018-09-27T20:15:08.072Z,95.10
2018-09-27T20:17:36.594Z,95.00
2018-09-27T20:20:04.134Z,94.60
2018-09-27T20:22:31.712Z,94.30
2018-09-27T20:24:59.292Z,94.40
2018-09-27T20:27:26.809Z,94.80
2018-09-27T20:29:54.415Z,94.80
2018-09-27T20:32:21.943Z,95.50
2018-09-27T20:34:49.451Z,95.70
2018-09-27T20:37:17.058Z,95.90
2018-09-27T20:39:44.581Z,96.00
2018-09-27T20:42:12.179Z,96.00
2018-09-27T20:44:39.748Z,96.20
2018-09-27T20:47:07.296Z,96.40
2018-09-27T20:49:35.390Z,96.50
2018-09-27T20:52:03.172Z,96.50
2018-09-27T20:54:30.766Z,96.50
2018-09-27T20:56:58.275Z,96.60
2018-09-27T20:59:25.859Z,95.70
2018-09-27T21:01:53.370Z,95.40
2018-09-27T21:04:20.836Z,95.30
2018-09-27T21:06:48.448Z,95.30
2018-09-27T21:09:16.020Z,95.20
2018-09-27T21:11:43.588Z,95.60
2018-09-27T21:14:11.549Z,95.50
2018-09-27T21:16:40.026Z,95.40
2018-09-27T21:19:07.643Z,95.30
2018-09-27T21:21:35.114Z,95.70
2018-09-27T21:24:02.672Z,95.60
2018-09-27T21:26:30.270Z,95.40
2018-09-27T21:28:57.769Z,94.80
2018-09-27T21:31:25.346Z,94.80
2018-09-27T21:33:52.923Z,94.70
2018-09-27T21:36:20.468Z,94.90
2018-09-27T21:38:47.956Z,95.10
2018-09-27T21:41:15.472Z,95.20
2018-09-27T21:43:43.137Z,95.60
2018-09-27T21:46:10.784Z,95.40
2018-09-27T21:48:38.262Z,94.70
2018-09-27T21:51:05.803Z,94.00
2018-09-27T21:53:33.320Z,94.50
2018-09-27T21:56:00.919Z,94.40
2018-09-27T21:58:28.377Z,93.60
2018-09-27T22:00:55.890Z,94.60
2018-09-27T22:03:23.811Z,94.00
2018-09-27T22:05:51.692Z,93.70
2018-09-27T22:08:19.239Z,93.40
2018-09-27T22:10:47.192Z,94.10
2018-09-27T22:13:14.877Z,94.20
2018-09-27T22:15:43.076Z,94.30
2018-09-27T22:18:11.252Z,93.80
2018-09-27T22:20:38.810Z,94.20
2018-09-27T22:23:06.332Z,94.40
2018-09-27T22:25:34.382Z,94.80
2018-09-27T22:28:01.899Z,94.60
2018-09-27T22:30:29.495Z,94.80
2018-09-27T22:32:57.103Z,94.80
2018-09-27T22:35:24.696Z,94.90
2018-09-27T22:37:52.411Z,94.60
2018-09-27T22:40:20.538Z,94.70
2018-09-27T22:42:48.505Z,94.90
2018-09-27T22:45:16.174Z,94.70
2018-09-27T22:47:43.858Z,94.70
2018-09-27T22:50:11.699Z,94.90
2018-09-27T22:52:39.305Z,94.80
2018-09-27T22:55:06.958Z,94.50
2018-09-27T22:57:34.562Z,94.90
2018-09-27T23:00:02.081Z,94.30
2018-09-27T23:02:30.473Z,94.50
2018-09-27T23:04:58.117Z,94.00
2018-09-27T23:07:25.933Z,94.00
2018-09-27T23:09:53.457Z,93.60
2018-09-27T23:12:21.108Z,93.10
2018-09-27T23:14:49.632Z,92.50
2018-09-27T23:17:17.364Z,91.90
2018-09-27T23:19:44.972Z,91.80
2018-09-27T23:22:12.652Z,92.20
2018-09-27T23:24:40.345Z,91.30
2018-09-27T23:27:07.856Z,91.60
2018-09-27T23:29:35.412Z,91.30
2018-09-27T23:32:03.006Z,91.30
2018-09-27T23:34:30.641Z,91.30
2018-09-27T23:36:59.742Z,91.40
2018-09-27T23:39:28.092Z,91.80
2018-09-27T23:41:56.489Z,91.70
2018-09-27T23:44:24.093Z,91.80
2018-09-27T23:46:51.853Z,92.00
2018-09-27T23:49:20.397Z,92.20
2018-09-27T23:51:49.864Z,91.80
2018-09-27T23:54:17.624Z,91.60
2018-09-27T23:56:45.558Z,91.50
2018-09-27T23:59:13.283Z,91.40
